sensor_id;sensor_type;location;lat;lon;timestamp;P1;durP1;ratioP1;P2;durP2;ratioP2
12110;SDS011;6119;52.372;8.990;2022-10-16T00:02:22;2.23;;;1.63;;
12110;SDS011;6119;52.372;8.990;2022-10-16T00:05:08;2.10;;;1.93;;
12110;SDS011;6119;52.372;8.990;2022-10-16T00:07:56;2.97;;;1.70;;
12110;SDS011;6119;52.372;8.990;2022-10-16T00:10:43;2.37;;;1.60;;
12110;SDS011;6119;52.372;8.990;2022-10-16T00:13:29;3.17;;;1.80;;
12110;SDS011;6119;52.372;8.990;2022-10-16T00:16:18;2.07;;;1.47;;
12110;SDS011;6119;52.372;8.990;2022-10-16T00:19:06;4.10;;;1.83;;
12110;SDS011;6119;52.372;8.990;2022-10-16T00:21:52;2.10;;;1.90;;
12110;SDS011;6119;52.372;8.990;2022-10-16T00:24:39;2.33;;;1.80;;
12110;SDS011;6119;52.372;8.990;2022-10-16T00:27:25;3.00;;;2.00;;
12110;SDS011;6119;52.372;8.990;2022-10-16T00:30:12;3.57;;;1.80;;
12110;SDS011;6119;52.372;8.990;2022-10-16T00:33:00;2.73;;;1.87;;
12110;SDS011;6119;52.372;8.990;2022-10-16T00:35:47;3.47;;;1.80;;
12110;SDS011;6119;52.372;8.990;2022-10-16T00:38:33;4.90;;;1.90;;
12110;SDS011;6119;52.372;8.990;2022-10-16T00:41:22;2.33;;;2.00;;
12110;SDS011;6119;52.372;8.990;2022-10-16T00:47:29;2.97;;;2.20;;
12110;SDS011;6119;52.372;8.990;2022-10-16T00:50:21;4.23;;;2.17;;
12110;SDS011;6119;52.372;8.990;2022-10-16T00:53:12;4.23;;;2.33;;
12110;SDS011;6119;52.372;8.990;2022-10-16T00:55:59;4.47;;;2.40;;
12110;SDS011;6119;52.372;8.990;2022-10-16T00:58:45;5.57;;;2.43;;
12110;SDS011;6119;52.372;8.990;2022-10-16T01:01:32;2.83;;;2.40;;
12110;SDS011;6119;52.372;8.990;2022-10-16T01:04:19;3.50;;;2.60;;
12110;SDS011;6119;52.372;8.990;2022-10-16T01:07:09;4.97;;;2.90;;
12110;SDS011;6119;52.372;8.990;2022-10-16T01:10:06;5.87;;;2.80;;
12110;SDS011;6119;52.372;8.990;2022-10-16T01:13:01;4.63;;;2.83;;
12110;SDS011;6119;52.372;8.990;2022-10-16T01:15:52;3.50;;;2.27;;
12110;SDS011;6119;52.372;8.990;2022-10-16T01:18:43;2.77;;;2.30;;
12110;SDS011;6119;52.372;8.990;2022-10-16T01:21:32;6.63;;;2.50;;
12110;SDS011;6119;52.372;8.990;2022-10-16T01:24:27;4.00;;;2.43;;
12110;SDS011;6119;52.372;8.990;2022-10-16T01:27:20;3.93;;;2.33;;
12110;SDS011;6119;52.372;8.990;2022-10-16T01:30:12;4.67;;;3.40;;
12110;SDS011;6119;52.372;8.990;2022-10-16T01:33:01;4.67;;;2.70;;
12110;SDS011;6119;52.372;8.990;2022-10-16T01:35:54;4.43;;;2.80;;
12110;SDS011;6119;52.372;8.990;2022-10-16T01:38:44;7.77;;;2.87;;
12110;SDS011;6119;52.372;8.990;2022-10-16T01:41:36;4.83;;;2.60;;
12110;SDS011;6119;52.372;8.990;2022-10-16T01:44:28;2.57;;;2.33;;
12110;SDS011;6119;52.372;8.990;2022-10-16T01:47:17;3.07;;;2.30;;
12110;SDS011;6119;52.372;8.990;2022-10-16T01:50:08;5.10;;;2.70;;
12110;SDS011;6119;52.372;8.990;2022-10-16T01:52:55;4.33;;;2.50;;
12110;SDS011;6119;52.372;8.990;2022-10-16T01:55:44;2.90;;;2.60;;
12110;SDS011;6119;52.372;8.990;2022-10-16T01:58:33;3.10;;;2.40;;
12110;SDS011;6119;52.372;8.990;2022-10-16T02:01:25;3.27;;;2.57;;
12110;SDS011;6119;52.372;8.990;2022-10-16T02:04:15;3.97;;;2.37;;
12110;SDS011;6119;52.372;8.990;2022-10-16T02:07:06;3.20;;;2.17;;
12110;SDS011;6119;52.372;8.990;2022-10-16T02:09:53;6.73;;;2.57;;
12110;SDS011;6119;52.372;8.990;2022-10-16T02:12:41;3.30;;;2.60;;
12110;SDS011;6119;52.372;8.990;2022-10-16T02:15:31;4.10;;;2.97;;
12110;SDS011;6119;52.372;8.990;2022-10-16T02:18:20;4.97;;;2.73;;
12110;SDS011;6119;52.372;8.990;2022-10-16T02:21:08;5.20;;;2.87;;
12110;SDS011;6119;52.372;8.990;2022-10-16T02:24:03;3.63;;;2.53;;
12110;SDS011;6119;52.372;8.990;2022-10-16T02:26:57;6.57;;;3.03;;
12110;SDS011;6119;52.372;8.990;2022-10-16T02:29:53;4.30;;;2.50;;
12110;SDS011;6119;52.372;8.990;2022-10-16T02:32:45;7.13;;;3.13;;
12110;SDS011;6119;52.372;8.990;2022-10-16T02:35:35;9.20;;;2.87;;
12110;SDS011;6119;52.372;8.990;2022-10-16T02:38:24;4.03;;;2.57;;
12110;SDS011;6119;52.372;8.990;2022-10-16T02:41:11;2.83;;;2.37;;
12110;SDS011;6119;52.372;8.990;2022-10-16T02:43:59;5.30;;;2.70;;
12110;SDS011;6119;52.372;8.990;2022-10-16T02:46:46;4.77;;;3.10;;
12110;SDS011;6119;52.372;8.990;2022-10-16T02:49:32;3.67;;;2.60;;
12110;SDS011;6119;52.372;8.990;2022-10-16T02:52:20;3.23;;;2.57;;
12110;SDS011;6119;52.372;8.990;2022-10-16T02:55:07;4.37;;;2.90;;
12110;SDS011;6119;52.372;8.990;2022-10-16T02:57:54;4.70;;;3.20;;
12110;SDS011;6119;52.372;8.990;2022-10-16T03:00:41;3.77;;;2.77;;
12110;SDS011;6119;52.372;8.990;2022-10-16T03:03:28;3.53;;;2.83;;
12110;SDS011;6119;52.372;8.990;2022-10-16T03:06:14;6.77;;;2.73;;
12110;SDS011;6119;52.372;8.990;2022-10-16T03:09:03;4.40;;;2.97;;
12110;SDS011;6119;52.372;8.990;2022-10-16T03:11:49;4.20;;;3.00;;
12110;SDS011;6119;52.372;8.990;2022-10-16T03:14:36;3.20;;;2.50;;
12110;SDS011;6119;52.372;8.990;2022-10-16T03:17:24;5.73;;;3.40;;
12110;SDS011;6119;52.372;8.990;2022-10-16T03:20:12;6.07;;;3.23;;
12110;SDS011;6119;52.372;8.990;2022-10-16T03:22:59;5.80;;;3.03;;
12110;SDS011;6119;52.372;8.990;2022-10-16T03:25:48;5.37;;;3.10;;
12110;SDS011;6119;52.372;8.990;2022-10-16T03:28:35;5.60;;;3.27;;
12110;SDS011;6119;52.372;8.990;2022-10-16T03:31:22;4.30;;;3.13;;
12110;SDS011;6119;52.372;8.990;2022-10-16T03:34:09;6.10;;;3.50;;
12110;SDS011;6119;52.372;8.990;2022-10-16T03:36:55;3.93;;;2.93;;
12110;SDS011;6119;52.372;8.990;2022-10-16T03:39:42;7.27;;;3.60;;
12110;SDS011;6119;52.372;8.990;2022-10-16T03:42:30;6.00;;;3.40;;
12110;SDS011;6119;52.372;8.990;2022-10-16T03:45:17;6.37;;;3.30;;
12110;SDS011;6119;52.372;8.990;2022-10-16T03:48:03;5.93;;;3.57;;
12110;SDS011;6119;52.372;8.990;2022-10-16T03:50:50;4.57;;;2.90;;
12110;SDS011;6119;52.372;8.990;2022-10-16T03:53:36;3.80;;;3.20;;
12110;SDS011;6119;52.372;8.990;2022-10-16T03:56:23;4.73;;;3.33;;
12110;SDS011;6119;52.372;8.990;2022-10-16T03:59:11;5.80;;;3.40;;
12110;SDS011;6119;52.372;8.990;2022-10-16T04:01:57;4.50;;;3.60;;
12110;SDS011;6119;52.372;8.990;2022-10-16T04:04:44;6.13;;;3.03;;
12110;SDS011;6119;52.372;8.990;2022-10-16T04:07:31;6.80;;;3.47;;
12110;SDS011;6119;52.372;8.990;2022-10-16T04:10:17;10.00;;;3.43;;
12110;SDS011;6119;52.372;8.990;2022-10-16T04:13:04;4.63;;;2.93;;
12110;SDS011;6119;52.372;8.990;2022-10-16T04:15:52;5.07;;;3.10;;
12110;SDS011;6119;52.372;8.990;2022-10-16T04:18:39;7.80;;;3.20;;
12110;SDS011;6119;52.372;8.990;2022-10-16T04:21:25;7.80;;;3.27;;
12110;SDS011;6119;52.372;8.990;2022-10-16T04:24:12;5.07;;;3.00;;
12110;SDS011;6119;52.372;8.990;2022-10-16T04:26:58;5.07;;;2.77;;
12110;SDS011;6119;52.372;8.990;2022-10-16T04:29:45;9.73;;;2.90;;
12110;SDS011;6119;52.372;8.990;2022-10-16T04:32:33;5.53;;;2.70;;
12110;SDS011;6119;52.372;8.990;2022-10-16T04:35:20;4.30;;;2.73;;
12110;SDS011;6119;52.372;8.990;2022-10-16T04:38:07;3.13;;;2.73;;
12110;SDS011;6119;52.372;8.990;2022-10-16T04:40:53;6.40;;;2.93;;
12110;SDS011;6119;52.372;8.990;2022-10-16T04:43:40;5.53;;;2.90;;
12110;SDS011;6119;52.372;8.990;2022-10-16T04:46:26;3.63;;;3.13;;
12110;SDS011;6119;52.372;8.990;2022-10-16T04:49:14;3.87;;;3.07;;
12110;SDS011;6119;52.372;8.990;2022-10-16T04:52:01;4.93;;;3.10;;
12110;SDS011;6119;52.372;8.990;2022-10-16T04:54:48;5.20;;;3.23;;
12110;SDS011;6119;52.372;8.990;2022-10-16T04:57:35;3.93;;;2.80;;
12110;SDS011;6119;52.372;8.990;2022-10-16T05:00:22;4.50;;;2.40;;
12110;SDS011;6119;52.372;8.990;2022-10-16T05:03:08;3.30;;;2.60;;
12110;SDS011;6119;52.372;8.990;2022-10-16T05:05:56;5.87;;;2.47;;
12110;SDS011;6119;52.372;8.990;2022-10-16T05:08:43;3.80;;;2.50;;
12110;SDS011;6119;52.372;8.990;2022-10-16T05:11:30;3.53;;;2.67;;
12110;SDS011;6119;52.372;8.990;2022-10-16T05:14:17;4.83;;;2.53;;
12110;SDS011;6119;52.372;8.990;2022-10-16T05:17:03;2.80;;;2.50;;
12110;SDS011;6119;52.372;8.990;2022-10-16T05:19:50;2.47;;;2.20;;
12110;SDS011;6119;52.372;8.990;2022-10-16T05:22:38;4.50;;;2.70;;
12110;SDS011;6119;52.372;8.990;2022-10-16T05:25:25;4.83;;;2.93;;
12110;SDS011;6119;52.372;8.990;2022-10-16T05:28:12;2.73;;;2.10;;
12110;SDS011;6119;52.372;8.990;2022-10-16T05:30:58;2.90;;;2.30;;
12110;SDS011;6119;52.372;8.990;2022-10-16T05:33:45;3.40;;;2.30;;
12110;SDS011;6119;52.372;8.990;2022-10-16T05:36:36;3.93;;;2.33;;
12110;SDS011;6119;52.372;8.990;2022-10-16T05:39:24;4.27;;;3.00;;
12110;SDS011;6119;52.372;8.990;2022-10-16T05:42:11;3.47;;;2.37;;
12110;SDS011;6119;52.372;8.990;2022-10-16T05:44:58;2.33;;;2.07;;
12110;SDS011;6119;52.372;8.990;2022-10-16T05:47:44;6.20;;;3.17;;
12110;SDS011;6119;52.372;8.990;2022-10-16T05:50:30;3.70;;;2.57;;
12110;SDS011;6119;52.372;8.990;2022-10-16T05:53:17;5.37;;;3.20;;
12110;SDS011;6119;52.372;8.990;2022-10-16T05:56:11;3.23;;;2.73;;
12110;SDS011;6119;52.372;8.990;2022-10-16T05:58:58;3.13;;;2.50;;
12110;SDS011;6119;52.372;8.990;2022-10-16T06:01:44;4.10;;;2.00;;
12110;SDS011;6119;52.372;8.990;2022-10-16T06:04:31;4.10;;;1.80;;
12110;SDS011;6119;52.372;8.990;2022-10-16T06:07:17;2.30;;;2.10;;
12110;SDS011;6119;52.372;8.990;2022-10-16T06:10:04;3.60;;;2.10;;
12110;SDS011;6119;52.372;8.990;2022-10-16T06:12:53;2.30;;;2.10;;
12110;SDS011;6119;52.372;8.990;2022-10-16T06:15:40;2.70;;;2.17;;
12110;SDS011;6119;52.372;8.990;2022-10-16T06:18:28;2.73;;;2.47;;
12110;SDS011;6119;52.372;8.990;2022-10-16T06:21:17;8.10;;;2.40;;
12110;SDS011;6119;52.372;8.990;2022-10-16T06:24:04;3.40;;;2.10;;
12110;SDS011;6119;52.372;8.990;2022-10-16T06:26:52;3.50;;;2.10;;
12110;SDS011;6119;52.372;8.990;2022-10-16T06:29:39;4.63;;;2.17;;
12110;SDS011;6119;52.372;8.990;2022-10-16T06:32:27;3.77;;;2.10;;
12110;SDS011;6119;52.372;8.990;2022-10-16T06:35:14;3.27;;;2.10;;
12110;SDS011;6119;52.372;8.990;2022-10-16T06:38:00;2.53;;;1.90;;
12110;SDS011;6119;52.372;8.990;2022-10-16T06:40:47;2.43;;;2.20;;
12110;SDS011;6119;52.372;8.990;2022-10-16T06:43:34;1.90;;;1.50;;
12110;SDS011;6119;52.372;8.990;2022-10-16T06:46:22;2.13;;;1.57;;
12110;SDS011;6119;52.372;8.990;2022-10-16T06:49:10;2.13;;;1.90;;
12110;SDS011;6119;52.372;8.990;2022-10-16T06:51:56;2.67;;;1.53;;
12110;SDS011;6119;52.372;8.990;2022-10-16T06:54:43;1.20;;;1.20;;
12110;SDS011;6119;52.372;8.990;2022-10-16T06:57:29;4.57;;;1.43;;
12110;SDS011;6119;52.372;8.990;2022-10-16T07:00:16;1.67;;;1.50;;
12110;SDS011;6119;52.372;8.990;2022-10-16T07:03:04;3.47;;;1.30;;
12110;SDS011;6119;52.372;8.990;2022-10-16T07:05:51;1.70;;;1.13;;
12110;SDS011;6119;52.372;8.990;2022-10-16T07:08:38;1.73;;;1.00;;
12110;SDS011;6119;52.372;8.990;2022-10-16T07:11:26;1.23;;;1.00;;
12110;SDS011;6119;52.372;8.990;2022-10-16T07:14:12;2.00;;;1.03;;
12110;SDS011;6119;52.372;8.990;2022-10-16T07:17:02;2.40;;;0.90;;
12110;SDS011;6119;52.372;8.990;2022-10-16T07:19:50;5.60;;;1.23;;
12110;SDS011;6119;52.372;8.990;2022-10-16T07:22:37;0.80;;;0.80;;
12110;SDS011;6119;52.372;8.990;2022-10-16T07:25:24;1.63;;;1.30;;
12110;SDS011;6119;52.372;8.990;2022-10-16T07:28:10;1.13;;;1.10;;
12110;SDS011;6119;52.372;8.990;2022-10-16T07:31:00;1.93;;;1.07;;
12110;SDS011;6119;52.372;8.990;2022-10-16T07:33:47;1.20;;;1.10;;
12110;SDS011;6119;52.372;8.990;2022-10-16T07:36:36;1.10;;;1.00;;
12110;SDS011;6119;52.372;8.990;2022-10-16T07:39:23;2.60;;;1.20;;
12110;SDS011;6119;52.372;8.990;2022-10-16T07:42:09;1.20;;;1.10;;
12110;SDS011;6119;52.372;8.990;2022-10-16T07:44:56;1.27;;;0.97;;
12110;SDS011;6119;52.372;8.990;2022-10-16T07:47:42;0.83;;;0.83;;
12110;SDS011;6119;52.372;8.990;2022-10-16T07:50:29;1.10;;;1.00;;
12110;SDS011;6119;52.372;8.990;2022-10-16T07:53:17;4.30;;;1.20;;
12110;SDS011;6119;52.372;8.990;2022-10-16T07:56:11;1.10;;;1.00;;
12110;SDS011;6119;52.372;8.990;2022-10-16T07:58:58;1.37;;;1.27;;
12110;SDS011;6119;52.372;8.990;2022-10-16T08:01:44;2.23;;;0.90;;
12110;SDS011;6119;52.372;8.990;2022-10-16T08:04:31;1.00;;;1.00;;
12110;SDS011;6119;52.372;8.990;2022-10-16T08:07:18;1.37;;;1.10;;
12110;SDS011;6119;52.372;8.990;2022-10-16T08:10:06;1.90;;;0.90;;
12110;SDS011;6119;52.372;8.990;2022-10-16T08:12:57;2.67;;;0.93;;
12110;SDS011;6119;52.372;8.990;2022-10-16T08:15:44;2.10;;;1.13;;
12110;SDS011;6119;52.372;8.990;2022-10-16T08:18:31;0.80;;;0.80;;
12110;SDS011;6119;52.372;8.990;2022-10-16T08:21:18;0.90;;;0.90;;
12110;SDS011;6119;52.372;8.990;2022-10-16T08:24:07;2.27;;;1.43;;
12110;SDS011;6119;52.372;8.990;2022-10-16T08:26:55;1.53;;;1.20;;
12110;SDS011;6119;52.372;8.990;2022-10-16T08:29:42;3.13;;;1.10;;
12110;SDS011;6119;52.372;8.990;2022-10-16T08:32:28;1.47;;;1.13;;
12110;SDS011;6119;52.372;8.990;2022-10-16T08:35:16;3.30;;;1.07;;
12110;SDS011;6119;52.372;8.990;2022-10-16T08:38:02;2.30;;;1.23;;
12110;SDS011;6119;52.372;8.990;2022-10-16T08:40:49;1.27;;;1.10;;
12110;SDS011;6119;52.372;8.990;2022-10-16T08:43:43;1.47;;;1.20;;
12110;SDS011;6119;52.372;8.990;2022-10-16T08:46:44;6.30;;;1.40;;
12110;SDS011;6119;52.372;8.990;2022-10-16T08:49:41;2.67;;;1.50;;
12110;SDS011;6119;52.372;8.990;2022-10-16T08:52:34;3.30;;;1.20;;
12110;SDS011;6119;52.372;8.990;2022-10-16T08:55:29;2.10;;;1.10;;
12110;SDS011;6119;52.372;8.990;2022-10-16T08:58:19;2.50;;;1.30;;
12110;SDS011;6119;52.372;8.990;2022-10-16T09:01:12;1.90;;;1.50;;
12110;SDS011;6119;52.372;8.990;2022-10-16T09:04:04;3.50;;;1.30;;
12110;SDS011;6119;52.372;8.990;2022-10-16T09:07:10;1.67;;;1.50;;
12110;SDS011;6119;52.372;8.990;2022-10-16T09:10:07;2.90;;;1.30;;
12110;SDS011;6119;52.372;8.990;2022-10-16T09:13:02;2.50;;;1.30;;
12110;SDS011;6119;52.372;8.990;2022-10-16T09:15:57;1.73;;;1.30;;
12110;SDS011;6119;52.372;8.990;2022-10-16T09:18:57;3.27;;;1.50;;
12110;SDS011;6119;52.372;8.990;2022-10-16T09:21:50;3.03;;;1.50;;
12110;SDS011;6119;52.372;8.990;2022-10-16T09:24:38;1.30;;;1.20;;
12110;SDS011;6119;52.372;8.990;2022-10-16T09:27:24;3.07;;;1.33;;
12110;SDS011;6119;52.372;8.990;2022-10-16T09:30:13;2.23;;;1.10;;
12110;SDS011;6119;52.372;8.990;2022-10-16T09:33:02;1.20;;;1.20;;
12110;SDS011;6119;52.372;8.990;2022-10-16T09:35:51;1.53;;;1.43;;
12110;SDS011;6119;52.372;8.990;2022-10-16T09:38:40;1.23;;;1.20;;
12110;SDS011;6119;52.372;8.990;2022-10-16T09:41:26;3.17;;;1.50;;
12110;SDS011;6119;52.372;8.990;2022-10-16T09:44:18;1.20;;;1.10;;
12110;SDS011;6119;52.372;8.990;2022-10-16T09:47:12;2.50;;;1.70;;
12110;SDS011;6119;52.372;8.990;2022-10-16T09:50:03;3.00;;;1.50;;
12110;SDS011;6119;52.372;8.990;2022-10-16T09:53:08;3.17;;;1.40;;
12110;SDS011;6119;52.372;8.990;2022-10-16T09:55:57;1.30;;;1.20;;
12110;SDS011;6119;52.372;8.990;2022-10-16T09:58:49;3.13;;;1.90;;
12110;SDS011;6119;52.372;8.990;2022-10-16T10:01:36;3.97;;;1.60;;
12110;SDS011;6119;52.372;8.990;2022-10-16T10:04:24;3.63;;;1.70;;
12110;SDS011;6119;52.372;8.990;2022-10-16T10:07:17;3.50;;;1.77;;
12110;SDS011;6119;52.372;8.990;2022-10-16T10:10:19;1.67;;;1.57;;
12110;SDS011;6119;52.372;8.990;2022-10-16T10:13:15;3.97;;;1.60;;
12110;SDS011;6119;52.372;8.990;2022-10-16T10:16:03;2.57;;;1.40;;
12110;SDS011;6119;52.372;8.990;2022-10-16T10:18:57;1.80;;;1.63;;
12110;SDS011;6119;52.372;8.990;2022-10-16T10:21:44;1.30;;;1.20;;
12110;SDS011;6119;52.372;8.990;2022-10-16T10:24:32;2.93;;;1.50;;
12110;SDS011;6119;52.372;8.990;2022-10-16T10:27:20;1.13;;;1.10;;
12110;SDS011;6119;52.372;8.990;2022-10-16T10:30:14;1.97;;;1.20;;
12110;SDS011;6119;52.372;8.990;2022-10-16T10:33:19;2.40;;;1.27;;
12110;SDS011;6119;52.372;8.990;2022-10-16T10:36:16;3.00;;;1.00;;
12110;SDS011;6119;52.372;8.990;2022-10-16T10:39:19;3.63;;;1.10;;
12110;SDS011;6119;52.372;8.990;2022-10-16T10:42:16;3.97;;;1.20;;
12110;SDS011;6119;52.372;8.990;2022-10-16T10:45:18;1.43;;;1.00;;
12110;SDS011;6119;52.372;8.990;2022-10-16T10:48:24;2.43;;;1.23;;
12110;SDS011;6119;52.372;8.990;2022-10-16T10:51:28;3.77;;;1.30;;
12110;SDS011;6119;52.372;8.990;2022-10-16T10:54:21;2.07;;;1.30;;
12110;SDS011;6119;52.372;8.990;2022-10-16T10:57:21;3.27;;;1.23;;
12110;SDS011;6119;52.372;8.990;2022-10-16T11:00:16;2.03;;;1.30;;
12110;SDS011;6119;52.372;8.990;2022-10-16T11:03:09;3.17;;;1.30;;
12110;SDS011;6119;52.372;8.990;2022-10-16T11:06:12;2.40;;;1.10;;
12110;SDS011;6119;52.372;8.990;2022-10-16T11:09:06;3.57;;;1.40;;
12110;SDS011;6119;52.372;8.990;2022-10-16T11:11:59;3.33;;;1.10;;
12110;SDS011;6119;52.372;8.990;2022-10-16T11:14:53;7.50;;;1.20;;
12110;SDS011;6119;52.372;8.990;2022-10-16T11:17:45;1.70;;;1.03;;
12110;SDS011;6119;52.372;8.990;2022-10-16T11:20:37;1.30;;;1.20;;
12110;SDS011;6119;52.372;8.990;2022-10-16T11:23:30;7.43;;;1.60;;
12110;SDS011;6119;52.372;8.990;2022-10-16T11:26:25;2.77;;;1.37;;
12110;SDS011;6119;52.372;8.990;2022-10-16T11:29:19;3.00;;;1.50;;
12110;SDS011;6119;52.372;8.990;2022-10-16T11:32:13;2.13;;;1.23;;
12110;SDS011;6119;52.372;8.990;2022-10-16T11:35:08;2.13;;;1.50;;
12110;SDS011;6119;52.372;8.990;2022-10-16T11:38:01;2.83;;;1.80;;
12110;SDS011;6119;52.372;8.990;2022-10-16T11:40:53;4.23;;;1.47;;
12110;SDS011;6119;52.372;8.990;2022-10-16T11:43:46;2.67;;;1.50;;
12110;SDS011;6119;52.372;8.990;2022-10-16T11:46:39;1.97;;;1.50;;
12110;SDS011;6119;52.372;8.990;2022-10-16T11:49:52;2.80;;;1.43;;
12110;SDS011;6119;52.372;8.990;2022-10-16T11:52:44;3.07;;;1.30;;
12110;SDS011;6119;52.372;8.990;2022-10-16T11:55:39;3.90;;;1.30;;
12110;SDS011;6119;52.372;8.990;2022-10-16T11:58:31;2.33;;;1.30;;
12110;SDS011;6119;52.372;8.990;2022-10-16T12:01:26;3.30;;;1.10;;
12110;SDS011;6119;52.372;8.990;2022-10-16T12:04:19;2.27;;;1.50;;
12110;SDS011;6119;52.372;8.990;2022-10-16T12:07:14;1.43;;;1.30;;
12110;SDS011;6119;52.372;8.990;2022-10-16T12:10:17;3.03;;;1.27;;
12110;SDS011;6119;52.372;8.990;2022-10-16T12:13:27;2.93;;;1.20;;
12110;SDS011;6119;52.372;8.990;2022-10-16T12:16:22;2.10;;;1.10;;
12110;SDS011;6119;52.372;8.990;2022-10-16T12:19:11;1.50;;;1.40;;
12110;SDS011;6119;52.372;8.990;2022-10-16T12:21:59;1.80;;;1.10;;
12110;SDS011;6119;52.372;8.990;2022-10-16T12:24:51;2.63;;;1.17;;
12110;SDS011;6119;52.372;8.990;2022-10-16T12:27:38;2.23;;;1.17;;
12110;SDS011;6119;52.372;8.990;2022-10-16T12:30:25;2.30;;;1.23;;
12110;SDS011;6119;52.372;8.990;2022-10-16T12:33:19;2.03;;;1.23;;
12110;SDS011;6119;52.372;8.990;2022-10-16T12:36:10;2.93;;;1.10;;
12110;SDS011;6119;52.372;8.990;2022-10-16T12:39:00;2.47;;;1.30;;
12110;SDS011;6119;52.372;8.990;2022-10-16T12:41:53;2.37;;;1.27;;
12110;SDS011;6119;52.372;8.990;2022-10-16T12:44:47;6.90;;;1.50;;
12110;SDS011;6119;52.372;8.990;2022-10-16T12:47:38;1.90;;;1.47;;
12110;SDS011;6119;52.372;8.990;2022-10-16T12:50:35;2.40;;;1.27;;
12110;SDS011;6119;52.372;8.990;2022-10-16T12:53:24;2.70;;;1.20;;
12110;SDS011;6119;52.372;8.990;2022-10-16T12:56:14;2.43;;;1.30;;
12110;SDS011;6119;52.372;8.990;2022-10-16T12:59:10;1.87;;;1.10;;
12110;SDS011;6119;52.372;8.990;2022-10-16T13:02:14;4.33;;;1.27;;
12110;SDS011;6119;52.372;8.990;2022-10-16T13:05:26;5.27;;;1.10;;
12110;SDS011;6119;52.372;8.990;2022-10-16T13:08:27;0.87;;;0.87;;
12110;SDS011;6119;52.372;8.990;2022-10-16T13:11:27;1.03;;;0.93;;
12110;SDS011;6119;52.372;8.990;2022-10-16T13:14:43;2.30;;;1.20;;
12110;SDS011;6119;52.372;8.990;2022-10-16T13:17:44;1.53;;;1.20;;
12110;SDS011;6119;52.372;8.990;2022-10-16T13:20:46;2.47;;;1.07;;
12110;SDS011;6119;52.372;8.990;2022-10-16T13:23:43;1.17;;;1.00;;
12110;SDS011;6119;52.372;8.990;2022-10-16T13:26:38;1.43;;;0.97;;
12110;SDS011;6119;52.372;8.990;2022-10-16T13:29:32;1.87;;;1.50;;
12110;SDS011;6119;52.372;8.990;2022-10-16T13:32:20;1.00;;;1.00;;
12110;SDS011;6119;52.372;8.990;2022-10-16T13:35:18;2.90;;;1.23;;
12110;SDS011;6119;52.372;8.990;2022-10-16T13:38:11;3.10;;;1.40;;
12110;SDS011;6119;52.372;8.990;2022-10-16T13:41:00;3.47;;;1.37;;
12110;SDS011;6119;52.372;8.990;2022-10-16T13:43:49;1.43;;;1.10;;
12110;SDS011;6119;52.372;8.990;2022-10-16T13:46:38;2.07;;;1.30;;
12110;SDS011;6119;52.372;8.990;2022-10-16T13:49:26;2.47;;;1.43;;
12110;SDS011;6119;52.372;8.990;2022-10-16T13:52:17;2.70;;;1.40;;
12110;SDS011;6119;52.372;8.990;2022-10-16T13:55:05;3.63;;;1.40;;
12110;SDS011;6119;52.372;8.990;2022-10-16T13:58:04;2.70;;;1.20;;
12110;SDS011;6119;52.372;8.990;2022-10-16T14:00:55;3.23;;;1.20;;
12110;SDS011;6119;52.372;8.990;2022-10-16T14:03:44;9.17;;;1.70;;
12110;SDS011;6119;52.372;8.990;2022-10-16T14:06:33;1.10;;;1.00;;
12110;SDS011;6119;52.372;8.990;2022-10-16T14:09:23;2.03;;;1.17;;
12110;SDS011;6119;52.372;8.990;2022-10-16T14:12:11;4.80;;;1.23;;
12110;SDS011;6119;52.372;8.990;2022-10-16T14:14:58;2.10;;;1.13;;
12110;SDS011;6119;52.372;8.990;2022-10-16T14:17:47;3.07;;;1.30;;
12110;SDS011;6119;52.372;8.990;2022-10-16T14:20:36;2.37;;;0.90;;
12110;SDS011;6119;52.372;8.990;2022-10-16T14:23:28;2.00;;;0.97;;
12110;SDS011;6119;52.372;8.990;2022-10-16T14:26:17;5.30;;;1.27;;
12110;SDS011;6119;52.372;8.990;2022-10-16T14:29:10;2.43;;;1.10;;
12110;SDS011;6119;52.372;8.990;2022-10-16T14:31:59;6.53;;;1.30;;
12110;SDS011;6119;52.372;8.990;2022-10-16T14:34:52;3.20;;;1.37;;
12110;SDS011;6119;52.372;8.990;2022-10-16T14:37:39;1.90;;;0.90;;
12110;SDS011;6119;52.372;8.990;2022-10-16T14:40:28;3.57;;;1.10;;
12110;SDS011;6119;52.372;8.990;2022-10-16T14:43:18;1.83;;;1.00;;
12110;SDS011;6119;52.372;8.990;2022-10-16T14:46:09;2.23;;;0.80;;
12110;SDS011;6119;52.372;8.990;2022-10-16T14:49:00;4.47;;;1.23;;
12110;SDS011;6119;52.372;8.990;2022-10-16T14:51:49;2.27;;;1.07;;
12110;SDS011;6119;52.372;8.990;2022-10-16T14:54:36;2.30;;;1.00;;
12110;SDS011;6119;52.372;8.990;2022-10-16T14:57:26;3.40;;;1.07;;
12110;SDS011;6119;52.372;8.990;2022-10-16T15:00:23;2.17;;;1.00;;
12110;SDS011;6119;52.372;8.990;2022-10-16T15:03:10;1.33;;;0.90;;
12110;SDS011;6119;52.372;8.990;2022-10-16T15:05:57;1.87;;;1.40;;
12110;SDS011;6119;52.372;8.990;2022-10-16T15:08:43;3.20;;;1.10;;
12110;SDS011;6119;52.372;8.990;2022-10-16T15:11:30;2.50;;;1.27;;
12110;SDS011;6119;52.372;8.990;2022-10-16T15:14:19;3.10;;;1.00;;
12110;SDS011;6119;52.372;8.990;2022-10-16T15:17:07;2.73;;;0.83;;
12110;SDS011;6119;52.372;8.990;2022-10-16T15:19:54;2.00;;;1.50;;
12110;SDS011;6119;52.372;8.990;2022-10-16T15:22:43;3.70;;;0.90;;
12110;SDS011;6119;52.372;8.990;2022-10-16T15:25:34;1.83;;;1.00;;
12110;SDS011;6119;52.372;8.990;2022-10-16T15:28:24;1.70;;;0.90;;
12110;SDS011;6119;52.372;8.990;2022-10-16T15:31:13;0.80;;;0.80;;
12110;SDS011;6119;52.372;8.990;2022-10-16T15:34:00;2.67;;;0.90;;
12110;SDS011;6119;52.372;8.990;2022-10-16T15:36:49;2.10;;;1.13;;
12110;SDS011;6119;52.372;8.990;2022-10-16T15:39:35;1.00;;;0.90;;
12110;SDS011;6119;52.372;8.990;2022-10-16T15:42:25;3.97;;;1.00;;
12110;SDS011;6119;52.372;8.990;2022-10-16T15:45:12;1.20;;;0.90;;
12110;SDS011;6119;52.372;8.990;2022-10-16T15:48:00;2.07;;;1.13;;
12110;SDS011;6119;52.372;8.990;2022-10-16T15:50:47;2.20;;;1.23;;
12110;SDS011;6119;52.372;8.990;2022-10-16T15:53:34;3.47;;;0.90;;
12110;SDS011;6119;52.372;8.990;2022-10-16T15:56:21;7.07;;;1.80;;
12110;SDS011;6119;52.372;8.990;2022-10-16T15:59:09;1.83;;;1.37;;
12110;SDS011;6119;52.372;8.990;2022-10-16T16:01:56;3.80;;;1.20;;
12110;SDS011;6119;52.372;8.990;2022-10-16T16:04:44;2.60;;;1.10;;
12110;SDS011;6119;52.372;8.990;2022-10-16T16:07:32;2.83;;;1.77;;
12110;SDS011;6119;52.372;8.990;2022-10-16T16:10:19;4.63;;;2.00;;
12110;SDS011;6119;52.372;8.990;2022-10-16T16:13:06;3.60;;;1.40;;
12110;SDS011;6119;52.372;8.990;2022-10-16T16:15:52;4.67;;;1.70;;
12110;SDS011;6119;52.372;8.990;2022-10-16T16:18:39;1.40;;;1.30;;
12110;SDS011;6119;52.372;8.990;2022-10-16T16:21:28;2.30;;;1.40;;
12110;SDS011;6119;52.372;8.990;2022-10-16T16:24:15;1.83;;;1.20;;
12110;SDS011;6119;52.372;8.990;2022-10-16T16:27:01;2.67;;;1.40;;
12110;SDS011;6119;52.372;8.990;2022-10-16T16:29:48;3.90;;;1.33;;
12110;SDS011;6119;52.372;8.990;2022-10-16T16:32:35;4.87;;;1.50;;
12110;SDS011;6119;52.372;8.990;2022-10-16T16:35:21;3.80;;;1.40;;
12110;SDS011;6119;52.372;8.990;2022-10-16T16:38:09;5.90;;;1.43;;
12110;SDS011;6119;52.372;8.990;2022-10-16T16:40:55;3.53;;;1.43;;
12110;SDS011;6119;52.372;8.990;2022-10-16T16:43:42;2.87;;;1.47;;
12110;SDS011;6119;52.372;8.990;2022-10-16T16:46:28;2.30;;;1.50;;
12110;SDS011;6119;52.372;8.990;2022-10-16T16:49:16;3.53;;;2.00;;
12110;SDS011;6119;52.372;8.990;2022-10-16T16:52:03;4.23;;;2.10;;
12110;SDS011;6119;52.372;8.990;2022-10-16T16:54:51;2.57;;;1.67;;
12110;SDS011;6119;52.372;8.990;2022-10-16T16:57:37;5.03;;;1.80;;
12110;SDS011;6119;52.372;8.990;2022-10-16T17:00:24;5.47;;;1.97;;
12110;SDS011;6119;52.372;8.990;2022-10-16T17:03:10;3.60;;;1.80;;
12110;SDS011;6119;52.372;8.990;2022-10-16T17:05:57;4.00;;;1.73;;
12110;SDS011;6119;52.372;8.990;2022-10-16T17:08:45;2.33;;;1.83;;
12110;SDS011;6119;52.372;8.990;2022-10-16T17:11:33;3.43;;;2.10;;
12110;SDS011;6119;52.372;8.990;2022-10-16T17:14:20;2.77;;;2.03;;
12110;SDS011;6119;52.372;8.990;2022-10-16T17:17:06;3.73;;;2.03;;
12110;SDS011;6119;52.372;8.990;2022-10-16T17:19:53;5.47;;;2.20;;
12110;SDS011;6119;52.372;8.990;2022-10-16T17:22:39;4.47;;;2.77;;